Time;durP1;ratioP1;P1;durP2;ratioP2;P2;SDS_P1;SDS_P2;PMS_P1;PMS_P2;Temp;Humidity;BMP_temperature;BMP_pressure;BME280_temperature;BME280_humidity;BME280_pressure;Samples;Min_cycle;Max_cycle;Signal;HPM_P1;HPM_P2
2021/01/10 00:00:38;;;;;;;120.15;40.58;;;1.00;99.90;;;;;;5035321;28;20029;-82
2021/01/10 00:03:04;;;;;;;122.43;43.58;;;1.10;99.90;;;;;;5052768;28;20089;-82
2021/01/10 00:05:35;;;;;;;122.30;44.63;;;1.20;99.90;;;;;;5035946;28;20021;-82
2021/01/10 00:08:02;;;;;;;125.88;45.28;;;1.10;99.90;;;;;;5060129;28;20056;-81
2021/01/10 00:10:29;;;;;;;131.88;42.42;;;1.10;99.90;;;;;;5055713;28;20425;-81
2021/01/10 00:13:02;;;;;;;118.72;42.13;;;1.20;99.90;;;;;;5066624;28;20016;-81
2021/01/10 00:15:28;;;;;;;117.30;37.95;;;1.30;99.90;;;;;;5043404;28;20029;-82
2021/01/10 00:17:54;;;;;;;116.50;41.92;;;1.40;99.90;;;;;;5076025;28;20040;-81
2021/01/10 00:20:21;;;;;;;120.13;41.95;;;1.40;99.90;;;;;;5072745;28;20032;-81
2021/01/10 00:22:56;;;;;;;126.65;42.63;;;1.30;99.90;;;;;;5060098;28;20029;-81
2021/01/10 00:25:23;;;;;;;124.30;42.65;;;1.10;99.90;;;;;;5051330;28;20361;-81
2021/01/10 00:27:49;;;;;;;130.70;46.40;;;1.20;99.90;;;;;;5050482;28;20044;-81
2021/01/10 00:30:20;;;;;;;114.18;39.55;;;1.20;99.90;;;;;;5050140;28;20086;-81
2021/01/10 00:32:54;;;;;;;116.97;40.50;;;1.10;99.90;;;;;;5043534;28;20440;-82
2021/01/10 00:35:21;;;;;;;118.75;39.97;;;1.20;99.90;;;;;;5053304;28;20044;-81
2021/01/10 00:37:51;;;;;;;114.90;38.75;;;1.20;99.90;;;;;;5047582;28;20021;-81
2021/01/10 00:40:18;;;;;;;96.47;36.97;;;1.20;99.90;;;;;;5049278;28;20028;-81
2021/01/10 00:42:48;;;;;;;107.95;36.85;;;1.20;99.90;;;;;;5058347;28;20021;-81
2021/01/10 00:45:14;;;;;;;108.10;36.63;;;1.30;99.90;;;;;;5054042;28;20033;-81
2021/01/10 00:47:40;;;;;;;102.72;36.30;;;1.30;99.90;;;;;;5060203;28;20385;-82
2021/01/10 00:50:08;;;;;;;109.20;37.33;;;1.40;99.90;;;;;;5055271;28;20042;-81
2021/01/10 00:52:35;;;;;;;98.93;37.55;;;1.40;99.90;;;;;;5055622;28;20056;-81
2021/01/10 00:55:00;;;;;;;94.05;35.70;;;1.30;99.90;;;;;;5060131;28;20037;-81
2021/01/10 00:57:26;;;;;;;97.13;33.65;;;1.40;99.90;;;;;;5071457;28;20032;-81
2021/01/10 00:59:52;;;;;;;99.30;36.53;;;1.50;99.90;;;;;;5052331;28;20078;-81
2021/01/10 01:02:17;;;;;;;90.32;33.55;;;1.50;99.90;;;;;;5054332;28;20109;-81
2021/01/10 01:04:45;;;;;;;95.28;33.95;;;1.50;99.90;;;;;;5054299;28;20194;-81
2021/01/10 01:07:11;;;;;;;91.88;33.03;;;1.50;99.90;;;;;;5061181;28;20020;-81
2021/01/10 01:09:37;;;;;;;86.93;32.40;;;1.50;99.90;;;;;;5071037;28;20392;-79
2021/01/10 01:12:06;;;;;;;89.07;32.35;;;1.50;99.90;;;;;;5051784;28;20103;-81
2021/01/10 01:14:33;;;;;;;94.82;32.30;;;1.50;99.90;;;;;;5052657;28;20028;-81
2021/01/10 01:16:59;;;;;;;91.05;34.38;;;1.50;99.90;;;;;;5050640;28;20504;-81
2021/01/10 01:19:25;;;;;;;87.38;33.83;;;1.50;99.90;;;;;;5044510;28;20028;-81
2021/01/10 01:21:52;;;;;;;108.40;38.25;;;1.50;99.90;;;;;;5043231;28;20033;-81
2021/01/10 01:24:19;;;;;;;111.30;40.92;;;1.40;99.90;;;;;;5041594;28;20017;-81
2021/01/10 01:26:45;;;;;;;110.50;40.33;;;1.40;99.90;;;;;;5052858;28;20060;-81
2021/01/10 01:29:11;;;;;;;108.18;38.05;;;1.30;99.90;;;;;;5059791;28;20033;-81
2021/01/10 01:31:36;;;;;;;107.57;36.95;;;1.30;99.90;;;;;;5055000;28;20044;-81
2021/01/10 01:34:02;;;;;;;103.50;37.22;;;1.30;99.90;;;;;;5053560;28;20028;-81
2021/01/10 01:36:29;;;;;;;96.72;35.33;;;1.30;99.90;;;;;;5063048;28;20044;-81
2021/01/10 01:38:58;;;;;;;97.93;36.42;;;1.30;99.90;;;;;;5055710;28;20035;-81
2021/01/10 01:41:25;;;;;;;84.82;33.28;;;1.30;99.90;;;;;;5052714;28;20035;-82
2021/01/10 01:43:51;;;;;;;95.53;32.58;;;1.30;99.90;;;;;;5051713;28;20107;-81
2021/01/10 01:46:36;;;;;;;92.43;33.22;;;1.30;99.90;;;;;;5061423;28;20497;-82
2021/01/10 01:49:09;;;;;;;84.40;33.15;;;1.30;99.90;;;;;;5043055;28;20044;-81
2021/01/10 01:51:36;;;;;;;84.05;30.60;;;1.30;99.90;;;;;;5053695;28;20060;-81
2021/01/10 01:54:03;;;;;;;85.65;30.02;;;1.30;99.90;;;;;;5055645;28;20021;-81
2021/01/10 01:56:29;;;;;;;81.50;31.30;;;1.30;99.90;;;;;;5070526;28;20040;-81
2021/01/10 01:59:01;;;;;;;75.15;29.83;;;1.30;99.90;;;;;;5052810;28;20469;-81
2021/01/10 02:01:32;;;;;;;77.53;29.65;;;1.30;99.90;;;;;;5069604;28;20034;-81
2021/01/10 02:04:25;;;;;;;82.05;31.15;;;1.40;99.90;;;;;;5060373;28;20476;-81
2021/01/10 02:07:14;;;;;;;79.82;30.30;;;1.30;99.90;;;;;;4987862;28;20043;-81
2021/01/10 02:09:43;;;;;;;80.47;28.98;;;1.50;99.90;;;;;;4961204;28;20042;-81
2021/01/10 02:12:11;;;;;;;80.45;30.88;;;1.50;99.90;;;;;;4968698;28;20035;-81
2021/01/10 02:14:46;;;;;;;79.75;31.48;;;1.50;99.90;;;;;;4956513;28;20049;-81
2021/01/10 02:17:16;;;;;;;84.68;31.63;;;1.50;99.90;;;;;;4971490;28;20042;-81
2021/01/10 02:20:10;;;;;;;86.03;32.30;;;1.50;99.90;;;;;;4942833;28;20030;-81
2021/01/10 02:22:58;;;;;;;67.47;28.20;;;1.50;99.90;;;;;;4954882;28;20074;-82
2021/01/10 02:25:25;;;;;;;81.28;29.55;;;1.50;99.90;;;;;;4954786;28;20038;-82
2021/01/10 02:27:53;;;;;;;80.07;29.05;;;1.50;99.90;;;;;;4952815;28;20052;-82
2021/01/10 02:30:21;;;;;;;74.13;31.25;;;1.50;99.90;;;;;;4967639;28;20039;-81
2021/01/10 02:32:51;;;;;;;70.25;28.17;;;1.50;99.90;;;;;;4953002;28;20039;-81
2021/01/10 02:35:18;;;;;;;84.93;31.05;;;1.50;99.90;;;;;;4971889;28;20038;-82
2021/01/10 02:37:56;;;;;;;80.32;29.10;;;1.50;99.90;;;;;;4941967;28;20035;-81
2021/01/10 02:40:49;;;;;;;72.63;28.92;;;1.50;99.90;;;;;;4958648;28;20119;-81
2021/01/10 02:43:22;;;;;;;70.53;27.85;;;1.50;99.90;;;;;;4902525;28;20038;-81
2021/01/10 02:45:51;;;;;;;71.10;28.33;;;1.50;99.90;;;;;;4987006;28;20066;-81
2021/01/10 02:48:18;;;;;;;70.88;27.90;;;1.50;99.90;;;;;;4989401;28;20049;-81
2021/01/10 02:50:44;;;;;;;71.93;26.85;;;1.50;99.90;;;;;;4976772;28;20034;-81
2021/01/10 02:53:09;;;;;;;71.72;26.55;;;1.50;99.90;;;;;;4976691;28;20117;-81
2021/01/10 02:55:35;;;;;;;74.03;26.85;;;1.50;99.90;;;;;;4973378;28;20407;-81
2021/01/10 02:58:15;;;;;;;63.47;28.13;;;1.40;99.90;;;;;;4973759;28;20022;-81
2021/01/10 03:00:42;;;;;;;65.63;25.83;;;1.40;99.90;;;;;;4993869;28;20046;-81
2021/01/10 03:03:09;;;;;;;69.20;26.95;;;1.40;99.90;;;;;;5018706;28;20010;-82
2021/01/10 03:05:35;;;;;;;70.78;26.73;;;1.40;99.90;;;;;;5034819;28;20038;-82
2021/01/10 03:08:01;;;;;;;76.57;26.98;;;1.50;99.90;;;;;;5018542;28;20078;-82
2021/01/10 03:10:27;;;;;;;61.10;25.75;;;1.40;99.90;;;;;;5006214;28;20046;-81
2021/01/10 03:12:53;;;;;;;62.72;27.70;;;1.40;99.90;;;;;;4975425;28;20042;-81
2021/01/10 03:15:21;;;;;;;66.85;25.92;;;1.50;99.90;;;;;;4990800;28;20245;-81
2021/01/10 03:17:49;;;;;;;65.32;25.70;;;1.50;99.90;;;;;;4978213;28;20031;-81
2021/01/10 03:20:17;;;;;;;67.32;24.30;;;1.50;99.90;;;;;;5016697;28;20040;-81
2021/01/10 03:22:47;;;;;;;54.38;24.15;;;1.50;99.90;;;;;;5062316;28;20075;-81
2021/01/10 03:25:15;;;;;;;66.55;27.23;;;1.50;99.90;;;;;;5051372;28;20036;-81
2021/01/10 03:27:41;;;;;;;69.47;26.88;;;1.50;99.90;;;;;;5050401;28;20032;-81
2021/01/10 03:30:13;;;;;;;57.10;25.25;;;1.50;99.90;;;;;;5049988;28;20026;-81
2021/01/10 03:32:38;;;;;;;68.70;25.88;;;1.50;99.90;;;;;;5050547;28;20024;-82
2021/01/10 03:35:06;;;;;;;58.25;24.83;;;1.50;99.90;;;;;;5052345;28;20070;-81
2021/01/10 03:37:32;;;;;;;73.68;27.95;;;1.50;99.90;;;;;;5054333;28;20033;-81
2021/01/10 03:39:57;;;;;;;59.25;24.38;;;1.50;99.90;;;;;;5045088;28;20028;-81
2021/01/10 03:42:23;;;;;;;56.90;24.92;;;1.50;99.90;;;;;;5049910;28;20384;-81
2021/01/10 03:44:48;;;;;;;64.28;24.88;;;1.60;99.90;;;;;;5067885;28;20107;-81
2021/01/10 03:47:14;;;;;;;63.78;24.15;;;1.70;99.90;;;;;;5049898;28;20020;-82
2021/01/10 03:49:40;;;;;;;52.78;23.15;;;1.60;99.90;;;;;;5055328;28;20059;-81
2021/01/10 03:52:05;;;;;;;53.55;22.98;;;1.80;99.90;;;;;;5051578;28;20036;-81
2021/01/10 03:54:31;;;;;;;51.35;23.38;;;1.80;99.90;;;;;;5051607;28;20033;-81
2021/01/10 03:56:56;;;;;;;53.03;21.60;;;1.90;99.90;;;;;;5049548;28;20045;-81
2021/01/10 03:59:22;;;;;;;55.80;21.63;;;1.90;99.90;;;;;;5048976;28;20066;-81
2021/01/10 04:01:47;;;;;;;59.25;22.45;;;2.10;99.90;;;;;;5048842;28;20028;-81
2021/01/10 04:04:13;;;;;;;56.35;23.00;;;2.00;99.90;;;;;;5043411;28;20104;-79
2021/01/10 04:06:38;;;;;;;49.65;21.60;;;2.10;99.90;;;;;;5050136;28;20040;-79
2021/01/10 04:09:04;;;;;;;53.40;21.90;;;2.00;99.90;;;;;;5046937;28;20115;-81
2021/01/10 04:11:30;;;;;;;53.40;21.13;;;2.00;99.90;;;;;;5024116;28;20411;-81
2021/01/10 04:13:56;;;;;;;54.17;22.35;;;2.00;99.90;;;;;;5048303;28;20035;-81
2021/01/10 04:16:21;;;;;;;53.13;21.52;;;2.00;99.90;;;;;;5050063;28;20067;-81
2021/01/10 04:18:47;;;;;;;48.33;20.27;;;2.10;99.90;;;;;;5051148;28;20089;-81
2021/01/10 04:21:12;;;;;;;53.17;20.95;;;2.10;99.90;;;;;;5051558;28;20028;-81
2021/01/10 04:23:38;;;;;;;49.33;20.88;;;2.20;99.90;;;;;;5060066;28;20025;-79
2021/01/10 04:26:04;;;;;;;45.13;20.63;;;2.20;99.90;;;;;;5048757;28;20056;-82
2021/01/10 04:28:30;;;;;;;50.83;21.02;;;2.20;99.90;;;;;;5048922;28;20042;-81
2021/01/10 04:30:56;;;;;;;47.20;21.23;;;2.20;99.90;;;;;;5048563;28;20031;-79
2021/01/10 04:33:22;;;;;;;49.53;21.63;;;2.30;99.90;;;;;;5050710;28;20107;-81
2021/01/10 04:35:48;;;;;;;53.83;21.67;;;2.20;99.90;;;;;;5068971;28;20033;-79
2021/01/10 04:38:14;;;;;;;47.75;22.55;;;2.10;99.90;;;;;;5059610;28;20027;-81
2021/01/10 04:40:40;;;;;;;48.22;20.50;;;2.20;99.90;;;;;;5049899;28;20115;-81
2021/01/10 04:43:06;;;;;;;47.35;19.95;;;2.20;99.90;;;;;;5067694;28;20028;-81
2021/01/10 04:45:32;;;;;;;47.55;21.30;;;2.30;99.90;;;;;;5065966;28;20583;-81
2021/01/10 04:47:59;;;;;;;44.60;19.92;;;2.30;99.90;;;;;;5066910;28;20037;-81
2021/01/10 04:50:26;;;;;;;43.00;18.55;;;2.30;99.90;;;;;;5050974;28;20043;-81
2021/01/10 04:52:58;;;;;;;43.58;19.67;;;2.30;99.90;;;;;;5042666;28;20024;-81
2021/01/10 04:55:24;;;;;;;55.22;22.27;;;2.40;99.90;;;;;;5046238;28;20377;-81
2021/01/10 04:58:00;;;;;;;48.13;22.65;;;2.30;99.90;;;;;;5049115;28;20166;-81
2021/01/10 05:00:27;;;;;;;46.83;20.80;;;2.30;99.90;;;;;;5048781;28;20107;-81
2021/01/10 05:03:01;;;;;;;47.80;21.08;;;2.30;99.90;;;;;;5049944;28;20021;-81
2021/01/10 05:05:27;;;;;;;51.50;21.25;;;2.30;99.90;;;;;;5050668;28;20033;-81
2021/01/10 05:07:53;;;;;;;48.67;21.90;;;2.30;99.90;;;;;;5042253;28;20029;-82
2021/01/10 05:10:19;;;;;;;57.40;22.20;;;2.20;99.90;;;;;;5050729;28;20024;-81
2021/01/10 05:12:44;;;;;;;52.97;23.17;;;2.20;99.90;;;;;;5049497;28;20103;-81
2021/01/10 05:15:11;;;;;;;55.72;23.73;;;2.30;99.90;;;;;;5053480;28;20044;-81
2021/01/10 05:17:36;;;;;;;49.53;22.02;;;2.30;99.90;;;;;;5050241;28;20033;-81
2021/01/10 05:20:07;;;;;;;58.08;25.15;;;2.30;99.90;;;;;;5037868;28;20035;-81
2021/01/10 05:22:33;;;;;;;57.25;25.63;;;2.40;99.90;;;;;;5065380;28;20122;-81
2021/01/10 05:25:14;;;;;;;51.35;23.15;;;2.30;99.90;;;;;;5054682;28;20501;-81
2021/01/10 05:27:40;;;;;;;54.80;23.17;;;2.40;99.90;;;;;;5045218;28;20029;-81
2021/01/10 05:30:06;;;;;;;64.97;24.60;;;2.40;99.90;;;;;;5025716;28;20025;-79
2021/01/10 05:32:32;;;;;;;61.50;25.17;;;2.30;99.90;;;;;;5008234;28;20081;-81
2021/01/10 05:35:01;;;;;;;62.60;25.50;;;2.40;99.90;;;;;;5023741;28;20050;-81
2021/01/10 05:37:27;;;;;;;67.57;28.75;;;2.20;99.90;;;;;;5024758;28;20130;-81
2021/01/10 05:39:52;;;;;;;70.13;27.33;;;2.30;99.90;;;;;;5005589;28;20474;-81
2021/01/10 05:42:19;;;;;;;82.80;29.52;;;2.30;99.90;;;;;;5009240;28;20022;-81
2021/01/10 05:44:44;;;;;;;75.45;30.48;;;2.40;99.90;;;;;;5027784;28;20131;-81
2021/01/10 05:47:13;;;;;;;85.40;31.05;;;2.40;99.90;;;;;;5004010;28;20053;-81
2021/01/10 05:49:50;;;;;;;84.78;30.33;;;2.40;99.90;;;;;;5024091;28;20045;-81
2021/01/10 05:52:16;;;;;;;78.57;31.02;;;2.50;99.90;;;;;;5013566;28;20025;-81
2021/01/10 05:54:55;;;;;;;86.25;31.25;;;2.50;99.90;;;;;;5011655;28;20033;-81
2021/01/10 05:57:28;;;;;;;85.53;30.70;;;2.50;99.90;;;;;;5011134;28;20603;-79
2021/01/10 05:59:55;;;;;;;80.00;30.95;;;2.50;99.90;;;;;;5004274;28;20025;-81
2021/01/10 06:02:29;;;;;;;79.93;31.10;;;2.50;99.90;;;;;;5052093;28;20028;-81
2021/01/10 06:05:13;;;;;;;78.82;30.02;;;2.40;99.90;;;;;;5054343;28;20047;-81
2021/01/10 06:07:40;;;;;;;80.68;30.30;;;2.50;99.90;;;;;;5066101;28;20566;-81
2021/01/10 06:10:08;;;;;;;77.47;29.63;;;2.50;99.90;;;;;;5052891;28;20492;-81
2021/01/10 06:12:34;;;;;;;80.38;30.92;;;2.50;99.90;;;;;;5067994;28;20032;-81
2021/01/10 06:15:18;;;;;;;73.28;29.05;;;2.50;99.90;;;;;;5051127;28;20473;-82
2021/01/10 06:17:50;;;;;;;66.65;28.23;;;2.50;99.90;;;;;;5050902;28;20388;-81
2021/01/10 06:20:30;;;;;;;75.53;29.10;;;2.50;99.90;;;;;;5071767;28;20100;-81
2021/01/10 06:22:58;;;;;;;85.13;27.88;;;2.40;99.90;;;;;;5059724;28;20028;-81
2021/01/10 06:25:25;;;;;;;71.65;28.33;;;2.40;99.90;;;;;;5050944;28;20385;-81
2021/01/10 06:28:02;;;;;;;64.75;27.50;;;2.50;99.90;;;;;;5050115;28;20020;-81
2021/01/10 06:30:33;;;;;;;71.75;28.58;;;2.50;99.90;;;;;;5065830;28;20107;-81
2021/01/10 06:33:06;;;;;;;65.20;27.17;;;2.50;99.90;;;;;;5072510;28;20020;-81
2021/01/10 06:35:37;;;;;;;64.30;27.33;;;2.60;99.90;;;;;;5040086;28;20041;-81
2021/01/10 06:38:05;;;;;;;76.35;28.30;;;2.60;99.90;;;;;;5072159;28;20020;-81
2021/01/10 06:40:36;;;;;;;66.78;27.13;;;2.50;99.90;;;;;;5056008;28;20111;-81
2021/01/10 06:43:03;;;;;;;;;;;2.50;99.90;;;;;;5059290;28;20040;-81
2021/01/10 06:45:35;;;;;;;62.13;25.35;;;2.50;99.90;;;;;;5067753;28;19931;-81
2021/01/10 06:48:03;;;;;;;66.95;27.13;;;2.50;99.90;;;;;;5068515;28;20025;-79
2021/01/10 06:50:31;;;;;;;73.95;29.63;;;2.50;99.90;;;;;;5085727;28;20548;-81
2021/01/10 06:53:02;;;;;;;69.13;26.27;;;2.50;99.90;;;;;;5047971;28;20033;-81
2021/01/10 06:55:28;;;;;;;71.75;27.95;;;2.50;99.90;;;;;;5051013;28;20094;-79
2021/01/10 06:57:54;;;;;;;65.35;27.85;;;2.50;99.90;;;;;;5050829;28;20035;-80
2021/01/10 07:00:21;;;;;;;79.65;29.65;;;2.40;99.90;;;;;;5067109;28;20028;-79
2021/01/10 07:03:07;;;;;;;68.95;27.00;;;2.40;99.90;;;;;;5051874;28;20543;-79
2021/01/10 07:06:12;;;;;;;74.00;28.30;;;2.40;99.90;;;;;;5055019;28;20035;-79
2021/01/10 07:08:52;;;;;;;73.32;27.45;;;2.30;99.90;;;;;;5064670;28;20473;-79
2021/01/10 07:11:25;;;;;;;78.22;28.73;;;2.40;99.90;;;;;;5053223;28;20025;-79
2021/01/10 07:14:11;;;;;;;75.45;29.17;;;2.40;99.90;;;;;;5062543;28;20366;-81
2021/01/10 07:16:38;;;;;;;76.65;29.05;;;2.40;99.90;;;;;;5050128;28;20044;-79
2021/01/10 07:19:08;;;;;;;66.15;26.70;;;2.30;99.90;;;;;;5051922;28;20024;-79
2021/01/10 07:21:46;;;;;;;72.78;29.17;;;2.30;99.90;;;;;;5052837;28;20027;-82
2021/01/10 07:24:20;;;;;;;64.30;27.67;;;2.40;99.90;;;;;;5052427;28;20111;-82
2021/01/10 07:26:56;;;;;;;59.88;26.65;;;2.50;99.90;;;;;;5050722;28;20117;-82
2021/01/10 07:29:34;;;;;;;70.55;27.02;;;2.50;99.90;;;;;;5043180;28;20020;-81
2021/01/10 07:32:05;;;;;;;76.65;29.77;;;2.50;99.90;;;;;;5049534;28;20017;-79
2021/01/10 07:34:33;;;;;;;67.75;28.63;;;2.60;99.90;;;;;;5041949;28;20024;-79
2021/01/10 07:37:02;;;;;;;65.85;27.77;;;2.60;99.90;;;;;;5032904;28;20033;-79
2021/01/10 07:39:36;;;;;;;73.70;28.85;;;2.60;99.90;;;;;;5050234;28;20024;-79
2021/01/10 07:42:11;;;;;;;65.50;27.63;;;2.50;99.90;;;;;;5068351;28;20028;-79
2021/01/10 07:44:54;;;;;;;70.78;27.10;;;2.60;99.90;;;;;;5047032;28;20086;-79
2021/01/10 07:47:29;;;;;;;64.78;28.25;;;2.60;99.90;;;;;;5045102;28;20024;-80
2021/01/10 07:49:56;;;;;;;68.38;27.55;;;2.60;99.90;;;;;;5069510;28;20059;-80
2021/01/10 07:52:41;;;;;;;73.43;30.05;;;2.60;99.90;;;;;;5051616;28;20043;-80
2021/01/10 07:55:20;;;;;;;79.80;30.70;;;2.50;99.90;;;;;;5063687;28;20093;-80
2021/01/10 07:58:01;;;;;;;72.45;28.33;;;2.60;99.90;;;;;;5049035;28;20035;-79
2021/01/10 08:00:32;;;;;;;74.70;31.08;;;2.50;99.90;;;;;;5049255;28;20029;-80
2021/01/10 08:03:02;;;;;;;76.63;30.75;;;2.50;99.90;;;;;;5050971;28;20086;-79
2021/01/10 08:05:36;;;;;;;79.63;29.60;;;2.50;99.90;;;;;;5047433;28;20024;-79
2021/01/10 08:08:13;;;;;;;73.55;30.27;;;2.60;99.90;;;;;;5051847;28;20020;-79
2021/01/10 08:10:52;;;;;;;78.80;29.85;;;2.60;99.90;;;;;;5052041;28;20021;-80
2021/01/10 08:13:31;;;;;;;79.47;29.13;;;2.50;99.90;;;;;;5061143;28;20017;-80
2021/01/10 08:16:18;;;;;;;75.68;30.00;;;2.60;99.90;;;;;;5050196;28;20052;-80
2021/01/10 08:18:45;;;;;;;81.70;30.38;;;2.60;99.90;;;;;;4976005;28;20054;-79
2021/01/10 08:21:12;;;;;;;75.00;30.48;;;2.70;99.90;;;;;;4992601;28;20050;-79
2021/01/10 08:23:38;;;;;;;68.35;28.27;;;2.70;99.90;;;;;;4978342;28;20046;-80
2021/01/10 08:26:15;;;;;;;70.88;30.05;;;2.70;99.90;;;;;;4985589;28;20042;-81
2021/01/10 08:28:53;;;;;;;66.38;28.38;;;2.80;99.90;;;;;;4981570;28;20015;-79
2021/01/10 08:31:23;;;;;;;71.95;28.75;;;2.70;99.90;;;;;;4982029;28;20006;-80
2021/01/10 08:33:59;;;;;;;72.47;30.33;;;2.80;99.90;;;;;;4988074;28;20113;-80
2021/01/10 08:36:25;;;;;;;72.30;30.08;;;2.80;99.90;;;;;;4992264;28;20034;-81
2021/01/10 08:39:14;;;;;;;68.45;28.13;;;2.70;99.90;;;;;;4977549;28;20069;-81
2021/01/10 08:41:44;;;;;;;70.28;28.20;;;2.80;99.90;;;;;;4971445;28;20073;-81
2021/01/10 08:44:11;;;;;;;65.88;26.08;;;2.70;99.90;;;;;;4978711;28;20074;-80
2021/01/10 08:46:51;;;;;;;70.55;28.50;;;2.70;99.90;;;;;;4964425;28;20035;-80
2021/01/10 08:49:18;;;;;;;69.20;28.50;;;2.70;99.90;;;;;;4965682;28;20058;-81
2021/01/10 08:51:44;;;;;;;74.10;29.17;;;2.70;99.90;;;;;;4958133;28;20023;-80
2021/01/10 08:54:14;;;;;;;75.40;29.92;;;2.70;99.90;;;;;;4955776;28;20029;-80
2021/01/10 08:56:41;;;;;;;71.40;28.38;;;2.80;99.90;;;;;;5037834;28;20048;-80
2021/01/10 08:59:08;;;;;;;70.13;29.63;;;2.80;99.90;;;;;;5069982;28;20036;-80
2021/01/10 09:01:34;;;;;;;85.50;27.92;;;2.80;99.90;;;;;;5056077;28;20093;-81
2021/01/10 09:04:01;;;;;;;69.95;28.40;;;2.90;99.90;;;;;;5054340;28;20461;-80
2021/01/10 09:06:49;;;;;;;69.25;28.25;;;3.00;99.90;;;;;;5072828;28;20381;-80
2021/01/10 09:09:43;;;;;;;71.20;28.38;;;3.00;99.90;;;;;;5054097;28;20024;-80
2021/01/10 09:12:29;;;;;;;76.95;27.63;;;3.00;99.90;;;;;;5049026;28;20025;-80
2021/01/10 09:15:16;;;;;;;72.88;29.85;;;3.00;99.90;;;;;;5050145;28;20028;-80
2021/01/10 09:17:54;;;;;;;67.22;27.58;;;3.10;99.90;;;;;;5049701;28;20036;-79
2021/01/10 09:20:26;;;;;;;72.80;27.92;;;3.10;99.90;;;;;;5051311;28;20032;-80
2021/01/10 09:22:53;;;;;;;72.75;27.10;;;3.10;99.90;;;;;;5054813;28;20025;-80
2021/01/10 09:25:19;;;;;;;74.68;28.00;;;3.20;99.90;;;;;;5047937;28;20063;-80
2021/01/10 09:28:08;;;;;;;71.95;25.45;;;3.20;99.90;;;;;;5053292;28;20043;-80
2021/01/10 09:30:35;;;;;;;75.13;27.17;;;3.20;99.90;;;;;;5047823;28;20025;-80
2021/01/10 09:33:04;;;;;;;68.13;27.15;;;3.20;99.90;;;;;;5053548;28;20082;-80
2021/01/10 09:35:40;;;;;;;59.67;24.83;;;3.20;99.90;;;;;;5072293;28;20111;-79
2021/01/10 09:38:13;;;;;;;60.20;23.17;;;3.30;99.90;;;;;;5054186;28;20029;-79
2021/01/10 09:41:09;;;;;;;56.53;23.90;;;3.30;99.90;;;;;;5060182;28;20103;-79
2021/01/10 09:43:44;;;;;;;63.20;26.10;;;3.30;99.90;;;;;;5051061;28;20032;-79
2021/01/10 09:46:35;;;;;;;65.93;25.38;;;3.30;99.90;;;;;;5050086;28;20359;-79
2021/01/10 09:49:18;;;;;;;67.78;23.27;;;3.30;99.90;;;;;;5041099;28;20044;-80
2021/01/10 09:51:52;;;;;;;62.70;23.60;;;3.20;99.90;;;;;;5045363;28;20114;-80
2021/01/10 09:54:20;;;;;;;56.95;23.75;;;3.30;99.90;;;;;;5045890;28;20033;-80
2021/01/10 09:56:58;;;;;;;59.13;24.13;;;3.50;99.90;;;;;;5055783;28;20029;-80
2021/01/10 09:59:35;;;;;;;58.40;24.10;;;3.50;99.90;;;;;;5046757;28;20055;-80
2021/01/10 10:02:14;;;;;;;65.68;24.42;;;3.60;99.90;;;;;;5052107;28;20028;-81
2021/01/10 10:04:41;;;;;;;60.15;22.85;;;3.60;99.90;;;;;;5048881;28;20151;-83
2021/01/10 10:07:07;;;;;;;52.83;24.02;;;3.60;99.90;;;;;;5053209;28;20093;-82
2021/01/10 10:09:52;;;;;;;50.28;23.40;;;3.80;99.90;;;;;;5048045;28;20473;-81
2021/01/10 10:12:19;;;;;;;70.43;24.98;;;3.90;99.90;;;;;;5050918;28;20028;-81
2021/01/10 10:14:57;;;;;;;59.78;23.23;;;3.90;99.90;;;;;;5051737;28;20029;-81
2021/01/10 10:17:36;;;;;;;44.95;21.17;;;4.00;99.90;;;;;;5037036;28;20086;-82
2021/01/10 10:20:04;;;;;;;39.17;18.02;;;4.00;99.90;;;;;;5037751;28;20102;-81
2021/01/10 10:22:32;;;;;;;49.53;18.63;;;3.90;99.90;;;;;;5054801;28;20024;-81
2021/01/10 10:25:00;;;;;;;44.90;19.75;;;4.00;99.90;;;;;;5051852;28;20029;-81
2021/01/10 10:27:29;;;;;;;40.70;19.90;;;3.90;99.90;;;;;;5065072;28;20075;-81
2021/01/10 10:29:55;;;;;;;57.15;21.05;;;3.90;99.90;;;;;;5050516;28;20089;-81
2021/01/10 10:32:22;;;;;;;53.58;20.17;;;3.90;99.90;;;;;;5050981;28;20466;-81
2021/01/10 10:34:49;;;;;;;52.53;20.85;;;4.00;99.90;;;;;;5052736;28;20123;-81
2021/01/10 10:37:16;;;;;;;48.53;19.70;;;4.10;99.90;;;;;;5052989;28;20029;-80
2021/01/10 10:39:42;;;;;;;48.40;21.60;;;4.20;99.90;;;;;;5051751;28;20056;-79
2021/01/10 10:42:11;;;;;;;47.00;21.65;;;4.30;99.90;;;;;;5067958;28;20083;-79
2021/01/10 10:44:37;;;;;;;54.28;20.75;;;4.40;99.90;;;;;;5052074;28;20040;-79
2021/01/10 10:47:03;;;;;;;52.05;21.00;;;4.60;99.90;;;;;;5050344;28;20389;-80
2021/01/10 10:49:30;;;;;;;42.47;17.70;;;4.60;99.90;;;;;;5070141;28;20041;-80
2021/01/10 10:51:59;;;;;;;50.58;21.88;;;4.70;99.90;;;;;;5052679;28;20020;-80
2021/01/10 10:54:25;;;;;;;57.42;23.38;;;4.90;99.90;;;;;;5052490;28;20024;-80
2021/01/10 10:56:51;;;;;;;41.60;19.92;;;5.40;99.90;;;;;;5049536;28;20102;-80
2021/01/10 10:59:17;;;;;;;44.05;18.13;;;5.40;99.90;;;;;;5050472;28;20036;-80
2021/01/10 11:01:45;;;;;;;44.58;17.88;;;5.20;99.90;;;;;;5050388;28;20040;-80
2021/01/10 11:04:11;;;;;;;47.65;18.50;;;4.90;99.90;;;;;;5028108;28;20034;-81
2021/01/10 11:06:38;;;;;;;46.58;17.33;;;5.00;99.90;;;;;;5011638;28;20057;-81
2021/01/10 11:09:09;;;;;;;36.70;16.20;;;5.00;99.90;;;;;;4992033;28;20399;-80
2021/01/10 11:11:43;;;;;;;41.17;17.77;;;4.90;99.90;;;;;;5020278;28;20125;-81
2021/01/10 11:14:10;;;;;;;50.28;19.30;;;5.20;99.90;;;;;;5007320;28;20030;-80
2021/01/10 11:16:37;;;;;;;37.17;16.23;;;5.80;99.90;;;;;;5012469;28;20064;-81
2021/01/10 11:19:05;;;;;;;41.30;18.20;;;6.40;99.90;;;;;;5027574;28;20033;-81
2021/01/10 11:21:36;;;;;;;35.78;15.65;;;6.30;99.90;;;;;;5011546;28;20025;-80
2021/01/10 11:24:04;;;;;;;33.58;14.95;;;6.00;99.90;;;;;;5019483;28;20029;-80
2021/01/10 11:26:30;;;;;;;37.28;15.23;;;5.90;99.90;;;;;;5010050;28;20045;-81
2021/01/10 11:28:56;;;;;;;36.40;14.23;;;5.90;99.90;;;;;;5005833;28;20037;-80
2021/01/10 11:31:25;;;;;;;43.80;14.52;;;5.70;99.90;;;;;;5012397;28;20498;-81
2021/01/10 11:33:52;;;;;;;44.00;15.27;;;5.60;99.90;;;;;;5011331;28;20029;-81
2021/01/10 11:36:19;;;;;;;40.40;15.40;;;5.30;99.90;;;;;;5067837;28;20182;-81
2021/01/10 11:38:50;;;;;;;34.40;15.20;;;5.20;99.90;;;;;;5047557;28;20012;-80
2021/01/10 11:41:16;;;;;;;41.33;15.05;;;5.30;99.90;;;;;;5046054;28;21345;-81
2021/01/10 11:43:42;;;;;;;47.58;16.65;;;5.30;99.90;;;;;;5046058;28;20025;-81
2021/01/10 11:46:08;;;;;;;52.05;15.75;;;5.20;99.90;;;;;;5048318;28;20032;-81
2021/01/10 11:48:35;;;;;;;35.13;14.75;;;5.20;99.90;;;;;;5050884;28;20044;-81
2021/01/10 11:51:02;;;;;;;43.35;15.77;;;5.10;99.90;;;;;;5051998;28;20480;-81
2021/01/10 11:53:29;;;;;;;41.17;16.45;;;5.10;99.90;;;;;;5051196;28;20028;-80
2021/01/10 11:55:54;;;;;;;40.58;15.38;;;5.10;99.90;;;;;;5049031;28;20037;-80
2021/01/10 11:58:20;;;;;;;48.53;17.08;;;5.00;99.90;;;;;;5050001;28;20021;-80
2021/01/10 12:00:50;;;;;;;46.17;16.23;;;4.90;99.90;;;;;;5067685;28;20031;-82
2021/01/10 12:03:16;;;;;;;42.25;15.13;;;5.10;99.90;;;;;;5066960;28;20016;-83
2021/01/10 12:05:42;;;;;;;56.10;17.52;;;5.10;99.90;;;;;;5051431;28;20553;-81
2021/01/10 12:08:07;;;;;;;41.60;16.23;;;5.10;99.90;;;;;;5051197;28;20107;-80
2021/01/10 12:10:34;;;;;;;34.63;15.05;;;5.20;99.90;;;;;;5051209;28;20032;-80
2021/01/10 12:13:02;;;;;;;47.17;16.05;;;5.30;99.90;;;;;;5045770;28;20031;-81
2021/01/10 12:15:29;;;;;;;42.83;15.85;;;5.40;99.90;;;;;;5047042;28;20493;-80
2021/01/10 12:17:54;;;;;;;44.63;16.75;;;5.60;99.90;;;;;;5050012;28;20024;-81
2021/01/10 12:20:20;;;;;;;35.53;14.50;;;5.50;99.90;;;;;;5047078;28;20089;-81
2021/01/10 12:22:47;;;;;;;48.13;15.13;;;5.60;99.90;;;;;;5064826;28;20054;-81
2021/01/10 12:25:13;;;;;;;39.75;15.82;;;5.70;99.90;;;;;;5021707;28;20555;-81
2021/01/10 12:27:38;;;;;;;32.60;15.18;;;6.00;99.90;;;;;;5006742;28;20183;-81
2021/01/10 12:30:05;;;;;;;35.58;15.73;;;5.80;99.90;;;;;;4986378;28;20103;-81
2021/01/10 12:32:43;;;;;;;43.88;16.48;;;5.90;99.90;;;;;;5006994;28;20029;-80
2021/01/10 12:35:15;;;;;;;40.85;14.90;;;6.00;99.90;;;;;;5026410;28;20124;-81
2021/01/10 12:37:41;;;;;;;38.78;15.73;;;5.90;99.90;;;;;;5026868;28;20116;-81
2021/01/10 12:40:08;;;;;;;38.95;16.23;;;5.90;99.90;;;;;;5016386;28;20335;-80
2021/01/10 12:42:34;;;;;;;62.60;16.88;;;6.00;99.90;;;;;;5039059;28;20013;-80
2021/01/10 12:45:00;;;;;;;36.35;16.35;;;6.00;99.90;;;;;;5053354;28;20071;-81
2021/01/10 12:47:26;;;;;;;33.05;14.60;;;5.80;99.90;;;;;;5053222;28;20037;-81
2021/01/10 12:49:52;;;;;;;37.55;16.30;;;5.90;99.90;;;;;;5055486;28;20097;-81